LV-0009 weather

Valmiera Airfield
Latvia

Public forecast

Using degrees Celsius for public forecast. Weather courtesy of forecast.io.

Closest aviation weather report (METAR) to Valmiera Airfield

Closest report is Tartu Airport, 60.0 nm (111.1 km) NE. Retrieved 2020/07/02 10:50 UTC (59 minutes ago):

EETU 021050Z 21010KT 9999 BKN042 21/12 Q1005

Closest aviation forecast (TAF) to Valmiera Airfield

Forecast is more than 12 hours old.

Closest forecast is Tartu Airport, 60.0 nm (111.1 km) NE. Retrieved 2019/10/24 21:06 UTC (8 months ago):

TAF TAF EETU 240000Z 2321/2421 CNL